Thunder radar more information blitzortung!


Löydät sääaseman tiedot myös:

European Weather Network

Finland Weather Exchange

Weather Underground

AWEKAS



Weather Underground säähistoriasivu

Päivittäin yhteenveto Tou 18, 2017 Yksiköt:  Metriset    Englantilaiset   Molemmat
« Edellinen Päivä
Seuraava Päivä »
Päivittäin Viikoittain Kuukausittain Vuosittain Mukautettu
  Korkea: Matala: Keskiarvo:
Lämpötila: -17.8 °C -14.3 °C -12 °C
Kastepiste: -17.8 °C -14.7 °C -13.2 °C
Kosteus: Humidity % 74 % 87 %
Tuulen nopeus: 0 km/h 0 km/h 0.6 km/h
Tuulenpuuska: 0 km/h - -
Tuuli:- - SSW
Ilmanpaine: 0 hPa 34269.7 hPa -
Sade: 33.02 mm    
Historical Graphs
 
 
Taulukkotiedot Tou 18, 2017
Aika Lämpötila Kastepiste Ilmanpaine Tuuli Tuulen nopeus Tuulenpuuska Kosteus Sademäärä (tunneittain)
-17.8 °C -17.8 °C 0 hPa Calm     Humidity % 0 mm
00:00 -13.8 °C -14.3 °C 34462.7 hPa Calm     94 % 0 mm
00:15 -13.8 °C -14.2 °C 34462.7 hPa Calm     95 % 0 mm
00:30 -13.8 °C -14.2 °C 34462.7 hPa Calm     95 % 0 mm
01:00 -13.8 °C -14.2 °C 34462.7 hPa Calm   5.1 km/h 95 % 0 mm
01:15 -13.8 °C -14.2 °C 34462.7 hPa SSW 2.6 km/h 12.9 km/h 95 % 0 mm
01:30 -13.8 °C -14.1 °C 34462.7 hPa Calm   10.3 km/h 96 % 0 mm
01:45 -13.8 °C -14.1 °C 34462.7 hPa Calm     96 % 0 mm
02:00 -13.8 °C -14.2 °C 34462.7 hPa Calm     96 % 0 mm
02:15 -13.9 °C -14.3 °C 34462.7 hPa Calm     95 % 0 mm
02:30 -13.9 °C -14.3 °C 34452.6 hPa Calm     95 % 0 mm
02:45 -13.9 °C -14.4 °C 34462.7 hPa Calm     95 % 0 mm
03:00 -14 °C -14.3 °C 34462.7 hPa Calm     96 % 0 mm
03:15 -14 °C -14.3 °C 34452.6 hPa Calm     96 % 0 mm
03:30 -14.1 °C -14.5 °C 34462.7 hPa Calm     95 % 0 mm
03:45 -14.2 °C -14.6 °C 34462.7 hPa Calm     95 % 0 mm
04:00 -14.3 °C -14.7 °C 34452.6 hPa Calm     95 % 0 mm
04:15 -14.3 °C -14.7 °C 34452.6 hPa Calm     96 % 0 mm
04:30 -14.3 °C -14.7 °C 34452.6 hPa Calm     96 % 0 mm
04:45 -14.3 °C -14.6 °C 34452.6 hPa Calm     96 % 0 mm
05:00 -14.3 °C -14.6 °C 34452.6 hPa Calm     96 % 0 mm
05:15 -14.2 °C -14.5 °C 34442.4 hPa Calm     96 % 0 mm
05:30 -14.2 °C -14.5 °C 34442.4 hPa Calm     96 % 0 mm
05:45 -14.2 °C -14.5 °C 34442.4 hPa Calm     96 % 0 mm
06:00 -14.1 °C -14.4 °C 34442.4 hPa Calm     96 % 0 mm
06:15 -14 °C -14.3 °C 34442.4 hPa Calm     96 % 0 mm
06:30 -13.8 °C -14.1 °C 34442.4 hPa Calm   7.7 km/h 97 % 0 mm
06:45 -13.7 °C -14 °C 34442.4 hPa Calm   2.6 km/h 96 % 0 mm
07:00 -13.5 °C -13.9 °C 34452.6 hPa Calm     95 % 0 mm
07:15 -13.4 °C -14 °C 34452.6 hPa Calm   5.1 km/h 93 % 0 mm
07:30 -13.2 °C -13.9 °C 34442.4 hPa Calm     92 % 0 mm
07:45 -13.1 °C -13.9 °C 34442.4 hPa Calm     90 % 0 mm
08:00 -12.8 °C -13.8 °C 34442.4 hPa Calm     89 % 0 mm
08:15 -12.7 °C -13.9 °C 34442.4 hPa Calm   5.1 km/h 86 % 0 mm
08:30 -12.6 °C -13.9 °C 34452.6 hPa Calm   7.7 km/h 85 % 0 mm
08:45 -12.4 °C -13.8 °C 34452.6 hPa Calm   2.6 km/h 85 % 0 mm
09:00 -12.3 °C -13.9 °C 34452.6 hPa Calm   2.6 km/h 83 % 0 mm
09:15 -12.1 °C -13.7 °C 34442.4 hPa Calm   7.7 km/h 83 % 0 mm
09:30 -12 °C -13.6 °C 34428.8 hPa South 2.6 km/h 10.3 km/h 82 % 0 mm
09:45 -11.9 °C -13.7 °C 34428.8 hPa SSW 5.1 km/h 12.9 km/h 80 % 0 mm
10:00 -11.8 °C -13.6 °C 34428.8 hPa South 2.6 km/h 10.3 km/h 80 % 0 mm
10:15 -11.6 °C -13.5 °C 34428.8 hPa Calm   7.7 km/h 79 % 0 mm
10:30 -11.4 °C -13.5 °C 34428.8 hPa SSW 2.6 km/h 10.3 km/h 78 % 0 mm
10:45 -11.2 °C -13.3 °C 34428.8 hPa South 2.6 km/h 12.9 km/h 77 % 0 mm
11:00 -10.9 °C -13 °C 34428.8 hPa Calm   5.1 km/h 78 % 0 mm
11:15 -10.7 °C -13.1 °C 34428.8 hPa Calm   10.3 km/h 75 % 0 mm
11:30 -10.6 °C -13 °C 34428.8 hPa South 2.6 km/h 10.3 km/h 75 % 0 mm
11:45 -10.5 °C -13 °C 34428.8 hPa South 2.6 km/h 12.9 km/h 74 % 0 mm
12:00 -10.4 °C -12.9 °C 34428.8 hPa Calm   10.3 km/h 75 % 0 mm
12:15 -10.4 °C -12.9 °C 34428.8 hPa SSW 7.7 km/h 12.9 km/h 75 % 0 mm
12:30 -10.4 °C -12.8 °C 34428.8 hPa South 2.6 km/h 12.9 km/h 75 % 0 mm
12:45 -10.3 °C -12.7 °C 34418.7 hPa South 2.6 km/h 15.6 km/h 75 % 0 mm
13:00 -10.3 °C -12.7 °C 34418.7 hPa SSW 7.7 km/h 20.8 km/h 76 % 0 mm
13:15 -10.2 °C -12.6 °C 34418.7 hPa SSW 2.6 km/h 12.9 km/h 76 % 0 mm
13:30 -10.3 °C -12.6 °C 34418.7 hPa South 5.1 km/h 15.6 km/h 76 % 0 mm
13:45 -10.3 °C -12.5 °C 34418.7 hPa SSW 2.6 km/h 15.6 km/h 77 % 0 mm
14:00 -10.2 °C -12.5 °C 34418.7 hPa Calm   15.6 km/h 76 % 0 mm
14:15 -10.2 °C -12.6 °C 34418.7 hPa SSW 5.1 km/h 15.6 km/h 76 % 0 mm
14:30 -10.3 °C -12.5 °C 34405.1 hPa South 2.6 km/h 10.3 km/h 77 % 0 mm
14:45 -10.3 °C -12.5 °C 34418.7 hPa Calm   18.2 km/h 77 % 0 mm
15:00 -10.2 °C -12.5 °C 34405.1 hPa South 2.6 km/h 18.2 km/h 76 % 0 mm
15:15 -10.2 °C -12.4 °C 34405.1 hPa Calm   7.7 km/h 76 % 0 mm
15:30 -10.2 °C -12.4 °C 34405.1 hPa Calm     77 % 0 mm
15:45 -10.2 °C -12.4 °C 34405.1 hPa Calm     77 % 0 mm
16:00 -10.2 °C -12.3 °C 34395 hPa Calm     78 % 0 mm
16:15 -10.1 °C -12.4 °C 34395 hPa Calm     76 % 0 mm
16:30 -10.1 °C -12.4 °C 34395 hPa Calm     76 % 0 mm
16:45 -10.1 °C -12.3 °C 34395 hPa Calm     77 % 0 mm
17:00 -10.1 °C -12.3 °C 34395 hPa Calm     77 % 0 mm
17:15 -10.1 °C -12.2 °C 34395 hPa Calm     78 % 0 mm
17:30 -10.2 °C -12.1 °C 34384.8 hPa Calm     80 % 0 mm
17:45 -10.3 °C -11.9 °C 34384.8 hPa Calm     83 % 0 mm
18:00 -10.5 °C -12.1 °C 34371.3 hPa Calm     83 % 0 mm
18:15 -10.6 °C -11.9 °C 34371.3 hPa Calm     85 % 0 mm
18:30 -10.7 °C -11.9 °C 34384.8 hPa Calm     86 % 0 mm
18:45 -10.7 °C -11.7 °C 34371.3 hPa Calm     89 % 7.62 mm
19:00 -10.8 °C -11.7 °C 34371.3 hPa Calm     90 % 7.62 mm
19:15 -10.9 °C -11.6 °C 34361.1 hPa Calm     92 % 7.62 mm
19:45 -11 °C -11.6 °C 34347.6 hPa Calm     93 % 7.62 mm
20:00 -11.1 °C -11.7 °C 34337.4 hPa Calm     93 % 12.7 mm
20:15 -11.2 °C -11.7 °C 34337.4 hPa Calm     94 % 12.7 mm
20:30 -11.2 °C -11.7 °C 34327.3 hPa Calm     94 % 12.7 mm
20:45 -11.2 °C -11.8 °C 34327.3 hPa Calm     94 % 12.7 mm
21:00 -11.3 °C -11.7 °C 34313.7 hPa Calm     95 % 12.7 mm
21:15 -11.3 °C -11.8 °C 34313.7 hPa Calm     95 % 7.62 mm
21:30 -11.4 °C -11.8 °C 34303.6 hPa Calm     95 % 0 mm
21:45 -11.4 °C -11.9 °C 34303.6 hPa Calm     95 % 7.62 mm
22:00 -11.5 °C -11.9 °C 34303.6 hPa Calm     95 % 7.62 mm
22:15 -11.5 °C -11.9 °C 34293.4 hPa Calm     95 % 7.62 mm
22:30 -11.5 °C -11.9 °C 34293.4 hPa Calm     95 % 7.62 mm
22:45 -11.5 °C -11.9 °C 34293.4 hPa Calm     95 % 0 mm
23:00 -11.6 °C -11.9 °C 34279.9 hPa Calm     95 % 0 mm
23:15 -11.5 °C -11.9 °C 34279.9 hPa Calm     95 % 0 mm
23:30 -11.5 °C -11.9 °C 34279.9 hPa Calm     95 % 0 mm
23:45 -11.4 °C -11.9 °C 34269.7 hPa Calm     95 % 0 mm
Esan sääasema
Terveisin Weather Underground - 2.75 mb

Alkuperäinen skripti  Jim McMurry - jmcmurry@mwt.net Sovitettu myös templatelle  Wim van der Kuil - Leuven-Template.eu

Laitteet joita käytämme:

Sääasema
Davis VP2

Sääasemaohjelma
Cumulus

Sääaseman tietokone
Asus EeePC

Palveluntarjoaja
Suncomet

Davis VP2

Cumulus

Asus EeePC

Suncomet